Armant, Egypt
Current Conditions -  °F | °C
As of 10:00 AM on Wednesday 26 Nov 2014 (Local Time) from HELX Reporting Station
Clear Clear  
Wind Chill: 68°   Ceiling: Unl
Heat Index: 68°   Visibility: 6mi
Dew Point: 52°   Wind: 0mph
Humidity: 56%   Direction: NA
Pressure: 30.09"   Gusts: NA
Location:  25.72°N, 32.59°E
Report Text: HELX 260800Z 00000KT CAVOK 20/11 Q1019 NOSIG
Loading
Personal Weather Stations






























Interactive Weather Map New forecast layout! Learn more

10-Day Weather Forecast

Advertisements
Track Severe Weather on mobile